createdAt,value
2019-05-22T00:01:25.241Z,13.24
2019-05-22T00:04:00.578Z,13.34
2019-05-22T00:06:36.669Z,13.35
2019-05-22T00:09:08.394Z,13.36
2019-05-22T00:11:37.849Z,13.33
2019-05-22T00:14:09.467Z,13.38
2019-05-22T00:16:39.834Z,13.35
2019-05-22T00:19:09.887Z,13.25
2019-05-22T00:21:40.298Z,13.23
2019-05-22T00:24:11.082Z,13.26
2019-05-22T00:26:40.640Z,13.24
2019-05-22T00:29:10.465Z,13.21
2019-05-22T00:31:40.051Z,13.26
2019-05-22T00:34:11.429Z,13.26
2019-05-22T00:36:40.997Z,13.19
2019-05-22T00:39:12.475Z,13.19
2019-05-22T00:41:42.931Z,13.24
2019-05-22T00:44:13.996Z,13.26
2019-05-22T00:46:43.832Z,13.24
2019-05-22T00:49:13.818Z,13.25
2019-05-22T00:51:54.848Z,13.31
2019-05-22T00:54:36.958Z,13.23
2019-05-22T00:57:15.013Z,13.21
2019-05-22T00:59:45.894Z,13.16
2019-05-22T01:02:18.977Z,13.20
2019-05-22T01:04:50.700Z,13.18
2019-05-22T01:07:21.411Z,13.15
2019-05-22T01:09:55.678Z,13.11
2019-05-22T01:12:29.337Z,13.08
2019-05-22T01:15:03.850Z,13.07
2019-05-22T01:17:34.115Z,13.07
2019-05-22T01:20:05.037Z,13.04
2019-05-22T01:22:36.315Z,13.08
2019-05-22T01:25:06.534Z,13.04
2019-05-22T01:27:38.780Z,13.11
2019-05-22T01:30:11.877Z,13.03
2019-05-22T01:32:47.749Z,12.99
2019-05-22T01:35:20.907Z,13.02
2019-05-22T01:37:51.828Z,13.02
2019-05-22T01:40:27.854Z,13.01
2019-05-22T01:42:59.181Z,13.05
2019-05-22T01:45:29.506Z,12.94
2019-05-22T01:48:03.070Z,12.94
2019-05-22T01:50:55.410Z,12.95
2019-05-22T01:53:29.326Z,13.00
2019-05-22T01:56:03.150Z,13.04
2019-05-22T01:58:34.360Z,13.02
2019-05-22T02:01:06.959Z,13.04
2019-05-22T02:03:36.836Z,12.98
2019-05-22T02:06:07.615Z,12.97
2019-05-22T02:08:41.543Z,12.98
2019-05-22T02:11:12.942Z,12.97
2019-05-22T02:13:48.663Z,12.96
2019-05-22T02:16:18.637Z,12.99
2019-05-22T02:18:49.321Z,12.94
2019-05-22T02:21:19.051Z,12.98
2019-05-22T02:23:48.554Z,12.98
2019-05-22T02:26:19.783Z,12.99
2019-05-22T02:28:49.677Z,12.92
2019-05-22T02:31:23.363Z,12.93
2019-05-22T02:34:08.017Z,12.87
2019-05-22T02:36:39.664Z,12.86
2019-05-22T02:39:23.540Z,12.89
2019-05-22T02:41:58.786Z,12.85
2019-05-22T02:44:29.892Z,12.89
2019-05-22T02:47:16.416Z,12.83
2019-05-22T02:49:32.649Z,12.82
2019-05-22T02:52:03.736Z,12.81
2019-05-22T02:54:33.460Z,12.86
2019-05-22T02:57:03.686Z,12.88
2019-05-22T02:59:33.380Z,12.86
2019-05-22T03:02:04.116Z,12.87
2019-05-22T03:04:53.474Z,12.85
2019-05-22T03:07:23.940Z,12.84
2019-05-22T03:09:53.557Z,12.83
2019-05-22T03:12:24.250Z,12.88
2019-05-22T03:14:55.150Z,12.87
2019-05-22T03:17:30.195Z,12.93
2019-05-22T03:19:59.901Z,12.89
2019-05-22T03:22:36.825Z,12.93
2019-05-22T03:25:09.944Z,12.88
2019-05-22T03:27:44.723Z,12.93
2019-05-22T03:30:19.824Z,12.90
2019-05-22T03:32:49.686Z,12.93
2019-05-22T03:35:20.448Z,12.92
2019-05-22T03:37:50.649Z,12.89
2019-05-22T03:40:20.595Z,12.88
2019-05-22T03:42:50.793Z,12.84
2019-05-22T03:45:21.540Z,12.84
2019-05-22T03:47:52.984Z,12.82
2019-05-22T03:50:22.827Z,12.79
2019-05-22T03:52:52.151Z,12.80
2019-05-22T03:55:21.649Z,12.80
2019-05-22T03:57:51.825Z,12.80
2019-05-22T04:00:22.296Z,12.88
2019-05-22T04:02:53.234Z,12.86
2019-05-22T04:05:23.154Z,12.78
2019-05-22T04:07:53.659Z,12.73
2019-05-22T04:10:23.839Z,12.77
2019-05-22T04:12:53.647Z,12.83
2019-05-22T04:15:23.714Z,12.75
2019-05-22T04:17:54.672Z,12.74
2019-05-22T04:20:24.817Z,12.72
2019-05-22T04:22:58.498Z,12.70
2019-05-22T04:25:27.926Z,12.69
2019-05-22T04:27:57.658Z,12.74
2019-05-22T04:30:27.365Z,12.75
2019-05-22T04:32:57.042Z,12.74
2019-05-22T04:35:26.298Z,12.77
2019-05-22T04:37:55.849Z,12.88
2019-05-22T04:40:57.963Z,12.81
2019-05-22T04:43:28.529Z,12.79
2019-05-22T04:45:58.264Z,12.76
2019-05-22T04:48:29.138Z,12.77
2019-05-22T04:51:02.129Z,12.68
2019-05-22T04:53:31.345Z,12.72
2019-05-22T04:56:00.773Z,12.71
2019-05-22T04:58:34.418Z,12.70
2019-05-22T05:01:03.751Z,12.75
2019-05-22T05:03:32.868Z,12.69
2019-05-22T05:06:06.686Z,12.80
2019-05-22T05:08:35.171Z,12.74
2019-05-22T05:11:05.248Z,12.71
2019-05-22T05:13:34.386Z,12.67
2019-05-22T05:16:04.135Z,12.65
2019-05-22T05:18:33.341Z,12.63
2019-05-22T05:21:02.637Z,12.64
2019-05-22T05:23:31.840Z,12.69
2019-05-22T05:26:00.933Z,12.63
2019-05-22T05:28:30.287Z,12.69
2019-05-22T05:30:59.344Z,12.59
2019-05-22T05:33:30.029Z,12.52
2019-05-22T05:35:59.351Z,12.55
2019-05-22T05:38:37.214Z,12.60
2019-05-22T05:41:06.856Z,12.61
2019-05-22T05:43:36.047Z,12.62
2019-05-22T05:46:05.342Z,12.59
2019-05-22T05:48:35.978Z,12.68
2019-05-22T05:51:40.451Z,12.71
2019-05-22T05:54:15.107Z,12.68
2019-05-22T05:56:46.586Z,12.66
2019-05-22T05:59:16.161Z,12.79
2019-05-22T06:01:48.405Z,12.86
2019-05-22T06:04:34.099Z,13.04
2019-05-22T06:07:17.443Z,13.09
2019-05-22T06:09:48.265Z,13.06
2019-05-22T06:12:17.427Z,13.03
2019-05-22T06:14:46.781Z,13.10
2019-05-22T06:18:16.044Z,13.13
2019-05-22T06:21:01.238Z,13.16
2019-05-22T06:23:52.765Z,13.31
2019-05-22T06:26:54.554Z,13.25
2019-05-22T06:29:27.915Z,13.36
2019-05-22T06:32:43.067Z,13.34
2019-05-22T06:35:12.666Z,13.37
2019-05-22T06:38:05.495Z,13.55
2019-05-22T06:40:34.717Z,13.60
2019-05-22T06:43:58.492Z,13.75
2019-05-22T06:46:47.768Z,13.81
2019-05-22T06:49:44.281Z,13.99
2019-05-22T06:52:15.114Z,13.94
2019-05-22T06:54:44.817Z,13.87
2019-05-22T06:57:31.989Z,14.02
2019-05-22T07:00:16.366Z,14.07
2019-05-22T07:02:45.570Z,14.05
2019-05-22T07:05:14.749Z,14.21
2019-05-22T07:07:44.005Z,14.26
2019-05-22T07:10:14.418Z,14.39
2019-05-22T07:12:44.366Z,14.43
2019-05-22T07:15:36.539Z,14.43
2019-05-22T07:18:07.194Z,14.51
2019-05-22T07:20:38.084Z,14.51
2019-05-22T07:23:10.217Z,14.63
2019-05-22T07:25:41.598Z,14.91
2019-05-22T07:28:11.296Z,15.18
2019-05-22T07:30:40.585Z,15.29
2019-05-22T07:33:10.481Z,15.37
2019-05-22T07:36:04.517Z,15.56
2019-05-22T07:38:10.694Z,15.56
2019-05-22T07:40:40.369Z,15.61
2019-05-22T07:43:09.435Z,15.63
2019-05-22T07:45:39.043Z,15.59
2019-05-22T07:48:10.620Z,15.54
2019-05-22T07:50:48.026Z,15.71
2019-05-22T07:53:15.799Z,15.82
2019-05-22T07:55:45.443Z,15.83
2019-05-22T07:58:16.390Z,15.81
2019-05-22T08:00:53.167Z,15.96
2019-05-22T08:03:22.827Z,16.20
2019-05-22T08:05:57.730Z,16.19
2019-05-22T08:08:27.706Z,16.48
2019-05-22T08:10:57.807Z,16.59
2019-05-22T08:13:29.005Z,16.37
2019-05-22T08:15:58.500Z,16.18
2019-05-22T08:18:28.138Z,16.03
2019-05-22T08:20:57.235Z,15.91
2019-05-22T08:23:28.086Z,15.87
2019-05-22T08:25:58.708Z,15.73
2019-05-22T08:28:29.621Z,15.80
2019-05-22T08:30:58.695Z,15.80
2019-05-22T08:33:27.750Z,15.79
2019-05-22T08:35:57.042Z,15.83
2019-05-22T08:38:30.916Z,16.12
2019-05-22T08:41:01.625Z,16.35
2019-05-22T08:43:31.216Z,16.58
2019-05-22T08:46:00.678Z,16.57
2019-05-22T08:48:30.470Z,16.52
2019-05-22T08:51:00.070Z,16.28
2019-05-22T08:53:44.453Z,16.29
2019-05-22T08:56:01.401Z,16.33
2019-05-22T08:58:32.041Z,16.24
2019-05-22T09:01:01.107Z,16.21
2019-05-22T09:03:32.072Z,16.09
2019-05-22T09:06:01.455Z,16.06
2019-05-22T09:08:30.658Z,16.09
2019-05-22T09:10:59.775Z,15.93
2019-05-22T09:13:29.448Z,16.01
2019-05-22T09:16:01.953Z,16.02
2019-05-22T09:18:32.187Z,16.07
2019-05-22T09:21:01.317Z,16.19
2019-05-22T09:23:30.725Z,16.14
2019-05-22T09:26:00.854Z,16.12
2019-05-22T09:28:30.101Z,16.19
2019-05-22T09:30:59.306Z,16.18
2019-05-22T09:33:28.787Z,16.13
2019-05-22T09:35:57.948Z,16.16
2019-05-22T09:38:27.065Z,16.17
2019-05-22T09:40:56.195Z,16.19
2019-05-22T09:43:25.457Z,16.34
2019-05-22T09:45:54.558Z,16.34
2019-05-22T09:48:23.925Z,16.38
2019-05-22T09:50:53.384Z,16.41
2019-05-22T09:53:22.883Z,16.55
2019-05-22T09:55:52.458Z,16.72
2019-05-22T09:58:21.652Z,16.81
2019-05-22T10:00:50.968Z,16.71
2019-05-22T10:03:20.140Z,16.67
2019-05-22T10:05:49.637Z,16.73
2019-05-22T10:08:18.806Z,16.73
2019-05-22T10:10:47.874Z,16.95
2019-05-22T10:13:17.133Z,16.86
2019-05-22T10:15:46.326Z,16.86
2019-05-22T10:18:15.554Z,17.00
2019-05-22T10:20:44.656Z,17.19
2019-05-22T10:23:16.188Z,17.12
2019-05-22T10:25:45.325Z,16.98
2019-05-22T10:28:14.993Z,17.12
2019-05-22T10:30:44.046Z,17.16
2019-05-22T10:33:13.162Z,17.03
2019-05-22T10:35:42.279Z,16.93
2019-05-22T10:38:11.445Z,17.01
2019-05-22T10:40:40.493Z,17.05
2019-05-22T10:43:09.790Z,17.17
2019-05-22T10:45:38.988Z,17.18
2019-05-22T10:48:08.122Z,17.08
2019-05-22T10:50:37.884Z,17.03
2019-05-22T10:53:06.946Z,17.14
2019-05-22T10:55:37.525Z,17.30
2019-05-22T10:58:07.009Z,17.33
2019-05-22T11:00:36.681Z,17.38
2019-05-22T11:03:06.300Z,17.40
2019-05-22T11:05:35.971Z,17.23
2019-05-22T11:08:05.341Z,17.20
2019-05-22T11:10:34.589Z,17.24
2019-05-22T11:13:05.814Z,16.76
2019-05-22T11:15:34.875Z,17.69
2019-05-22T11:18:04.795Z,18.01
2019-05-22T11:20:34.175Z,18.44
2019-05-22T11:23:04.197Z,18.40
2019-05-22T11:25:33.558Z,18.22
2019-05-22T11:28:02.719Z,18.15
2019-05-22T11:30:31.985Z,18.20
2019-05-22T11:33:01.664Z,18.67
2019-05-22T11:35:31.136Z,18.92
2019-05-22T11:38:00.454Z,18.90
2019-05-22T11:40:29.764Z,18.99
2019-05-22T11:42:59.001Z,19.03
2019-05-22T11:45:29.955Z,19.05
2019-05-22T11:47:59.186Z,18.78
2019-05-22T11:50:30.156Z,18.66
2019-05-22T11:52:59.644Z,18.82
2019-05-22T11:55:44.217Z,18.91
2019-05-22T11:58:00.880Z,18.86
2019-05-22T12:00:30.231Z,18.88
2019-05-22T12:03:01.345Z,18.78
2019-05-22T12:05:31.483Z,18.76
2019-05-22T12:08:00.727Z,18.66
2019-05-22T12:10:30.400Z,18.65
2019-05-22T12:12:59.448Z,18.91
2019-05-22T12:15:30.378Z,19.30
2019-05-22T12:18:01.417Z,19.42
2019-05-22T12:20:31.493Z,18.97
2019-05-22T12:23:00.931Z,18.88
2019-05-22T12:25:30.270Z,18.91
2019-05-22T12:27:59.425Z,18.98
2019-05-22T12:30:28.837Z,19.20
2019-05-22T12:32:59.249Z,19.14
2019-05-22T12:35:29.076Z,19.05
2019-05-22T12:37:59.500Z,18.96
2019-05-22T12:40:31.984Z,18.85
2019-05-22T12:43:01.986Z,18.99
2019-05-22T12:45:31.951Z,19.00
2019-05-22T12:48:02.062Z,19.07
2019-05-22T12:50:31.441Z,19.48
2019-05-22T12:53:02.802Z,19.77
2019-05-22T12:55:32.009Z,19.81
2019-05-22T12:58:01.341Z,19.94
2019-05-22T13:00:31.347Z,19.66
2019-05-22T13:03:00.789Z,19.47
2019-05-22T13:05:30.103Z,19.32
2019-05-22T13:07:59.520Z,19.18
2019-05-22T13:10:29.187Z,19.07
2019-05-22T13:12:58.301Z,19.22
2019-05-22T13:15:27.616Z,19.67
2019-05-22T13:17:57.045Z,19.87
2019-05-22T13:20:41.916Z,19.53
2019-05-22T13:23:03.249Z,19.08
2019-05-22T13:25:36.352Z,18.85
2019-05-22T13:28:07.677Z,18.67
2019-05-22T13:30:39.238Z,18.62
2019-05-22T13:33:13.545Z,18.84
2019-05-22T13:35:43.434Z,18.96
2019-05-22T13:38:13.147Z,18.92
2019-05-22T13:40:42.755Z,18.85
2019-05-22T13:43:12.080Z,19.12
2019-05-22T13:45:41.363Z,19.08
2019-05-22T13:48:10.600Z,18.69
2019-05-22T13:50:40.260Z,18.51
2019-05-22T13:53:11.916Z,18.32
2019-05-22T13:55:41.288Z,18.10
2019-05-22T13:58:11.662Z,18.12
2019-05-22T14:00:41.661Z,18.09
2019-05-22T14:03:11.015Z,18.13
2019-05-22T14:05:41.857Z,18.32
2019-05-22T14:08:12.111Z,18.43
2019-05-22T14:10:41.965Z,18.59
2019-05-22T14:13:11.169Z,18.53
2019-05-22T14:15:50.382Z,18.44
2019-05-22T14:18:11.937Z,18.26
2019-05-22T14:20:41.236Z,18.30
2019-05-22T14:23:10.423Z,18.53
2019-05-22T14:25:39.663Z,18.63
2019-05-22T14:28:09.764Z,18.79
2019-05-22T14:30:39.140Z,18.70
2019-05-22T14:33:08.644Z,18.76
2019-05-22T14:35:48.329Z,18.98
2019-05-22T14:38:11.319Z,19.31
2019-05-22T14:40:40.634Z,19.56
2019-05-22T14:43:10.362Z,19.82
2019-05-22T14:45:39.656Z,19.80
2019-05-22T14:48:09.096Z,19.91
2019-05-22T14:50:38.310Z,20.00
2019-05-22T14:53:08.403Z,20.12
2019-05-22T14:55:39.161Z,20.18
2019-05-22T14:58:08.375Z,20.20
2019-05-22T15:00:39.789Z,20.27
2019-05-22T15:03:08.930Z,20.31
2019-05-22T15:05:38.119Z,20.32
2019-05-22T15:08:07.958Z,20.40
2019-05-22T15:10:37.385Z,20.13
2019-05-22T15:13:06.660Z,20.17
2019-05-22T15:15:40.122Z,20.27
2019-05-22T15:18:07.416Z,20.42
2019-05-22T15:21:00.108Z,20.57
2019-05-22T15:23:29.407Z,20.55
2019-05-22T15:25:58.555Z,20.44
2019-05-22T15:28:27.677Z,20.36
2019-05-22T15:30:56.914Z,20.46
2019-05-22T15:33:27.003Z,20.46
2019-05-22T15:35:56.100Z,20.50
2019-05-22T15:38:26.113Z,20.38
2019-05-22T15:40:55.468Z,20.16
2019-05-22T15:43:25.753Z,20.05
2019-05-22T15:45:55.871Z,20.19
2019-05-22T15:48:30.345Z,20.22
2019-05-22T15:51:02.542Z,20.17
2019-05-22T15:53:32.256Z,20.31
2019-05-22T15:56:04.240Z,20.33
2019-05-22T15:58:35.131Z,20.37
2019-05-22T16:01:05.195Z,20.08
2019-05-22T16:03:35.876Z,20.02
2019-05-22T16:06:06.377Z,20.03
2019-05-22T16:08:35.458Z,20.00
2019-05-22T16:11:06.579Z,19.98
2019-05-22T16:13:36.040Z,19.91
2019-05-22T16:16:06.308Z,19.79
2019-05-22T16:18:39.005Z,19.67
2019-05-22T16:21:09.138Z,19.61
2019-05-22T16:23:38.822Z,19.47
2019-05-22T16:26:09.551Z,19.43
2019-05-22T16:28:40.816Z,19.35
2019-05-22T16:31:10.501Z,19.25
2019-05-22T16:33:41.569Z,19.20
2019-05-22T16:36:11.852Z,19.23
2019-05-22T16:38:41.208Z,19.23
2019-05-22T16:41:10.351Z,19.13
2019-05-22T16:43:48.990Z,19.10
2019-05-22T16:46:15.009Z,19.15
2019-05-22T16:48:44.902Z,19.12
2019-05-22T16:51:16.045Z,19.12
2019-05-22T16:53:49.006Z,19.21
2019-05-22T16:56:19.271Z,19.22
2019-05-22T16:58:50.038Z,19.23
2019-05-22T17:01:19.378Z,19.09
2019-05-22T17:03:51.477Z,18.99
2019-05-22T17:06:22.180Z,18.92
2019-05-22T17:08:51.917Z,18.93
2019-05-22T17:11:21.950Z,18.80
2019-05-22T17:13:51.276Z,18.82
2019-05-22T17:16:20.437Z,18.84
2019-05-22T17:18:49.684Z,18.77
2019-05-22T17:21:18.862Z,18.63
2019-05-22T17:23:48.967Z,18.61
2019-05-22T17:26:18.811Z,18.53
2019-05-22T17:28:48.884Z,18.64
2019-05-22T17:31:18.174Z,18.57
2019-05-22T17:33:47.432Z,18.63
2019-05-22T17:36:18.951Z,18.55
2019-05-22T17:38:48.363Z,18.50
2019-05-22T17:41:18.856Z,18.54
2019-05-22T17:43:48.303Z,18.46
2019-05-22T17:46:17.831Z,18.41
2019-05-22T17:48:47.390Z,18.40
2019-05-22T17:51:17.244Z,18.39
2019-05-22T17:53:46.494Z,18.26
2019-05-22T17:56:15.734Z,18.23
2019-05-22T17:58:45.259Z,18.24
2019-05-22T18:01:15.854Z,18.18
2019-05-22T18:03:45.208Z,18.12
2019-05-22T18:06:14.965Z,18.12
2019-05-22T18:08:44.192Z,18.12
2019-05-22T18:11:13.347Z,18.18
2019-05-22T18:13:58.748Z,18.09
2019-05-22T18:16:28.299Z,18.10
2019-05-22T18:18:57.687Z,18.01
2019-05-22T18:21:27.049Z,18.01
2019-05-22T18:23:56.257Z,17.97
2019-05-22T18:26:25.861Z,17.90
2019-05-22T18:28:55.225Z,17.84
2019-05-22T18:31:24.393Z,17.80
2019-05-22T18:33:53.531Z,17.74
2019-05-22T18:36:24.162Z,17.71
2019-05-22T18:38:53.252Z,17.66
2019-05-22T18:41:22.330Z,17.52
2019-05-22T18:43:51.871Z,17.38
2019-05-22T18:46:20.972Z,17.26
2019-05-22T18:48:50.255Z,17.12
2019-05-22T18:51:19.358Z,16.93
2019-05-22T18:53:48.594Z,16.80
2019-05-22T18:56:18.174Z,16.69
2019-05-22T18:58:47.565Z,16.60
2019-05-22T19:01:17.007Z,16.51
2019-05-22T19:03:46.118Z,16.38
2019-05-22T19:06:29.158Z,16.23
2019-05-22T19:08:47.743Z,16.13
2019-05-22T19:11:16.811Z,16.06
2019-05-22T19:13:45.987Z,15.95
2019-05-22T19:16:15.577Z,15.83
2019-05-22T19:18:45.216Z,15.73
2019-05-22T19:21:14.601Z,15.64
2019-05-22T19:23:43.852Z,15.50
2019-05-22T19:26:13.145Z,15.39
2019-05-22T19:28:44.457Z,15.26
2019-05-22T19:31:13.716Z,15.14
2019-05-22T19:33:43.091Z,14.99
2019-05-22T19:36:12.167Z,14.89
2019-05-22T19:38:41.468Z,14.94
2019-05-22T19:41:11.105Z,14.79
2019-05-22T19:43:40.839Z,14.63
2019-05-22T19:46:10.092Z,14.49
2019-05-22T19:48:39.290Z,14.38
2019-05-22T19:51:08.431Z,14.29
2019-05-22T19:53:38.302Z,14.22
2019-05-22T19:56:07.707Z,14.15
2019-05-22T19:58:37.284Z,14.04
2019-05-22T20:01:06.584Z,13.97
2019-05-22T20:03:36.087Z,13.97
2019-05-22T20:06:06.344Z,13.97
2019-05-22T20:08:36.995Z,13.93
2019-05-22T20:11:06.115Z,13.76
2019-05-22T20:13:35.253Z,13.61
2019-05-22T20:16:04.648Z,13.54
2019-05-22T20:18:34.381Z,13.42
2019-05-22T20:21:04.590Z,13.34
2019-05-22T20:23:36.566Z,13.21
2019-05-22T20:26:06.336Z,13.19
2019-05-22T20:28:35.963Z,13.12
2019-05-22T20:31:05.464Z,13.00
2019-05-22T20:33:34.661Z,13.07
2019-05-22T20:36:04.226Z,13.12
2019-05-22T20:38:33.966Z,13.16
2019-05-22T20:41:03.388Z,13.18
2019-05-22T20:43:32.866Z,13.07
2019-05-22T20:46:03.868Z,13.05
2019-05-22T20:48:33.894Z,12.93
2019-05-22T20:51:03.662Z,12.73
2019-05-22T20:53:33.387Z,12.68
2019-05-22T20:56:03.177Z,12.59
2019-05-22T20:58:32.379Z,12.50
2019-05-22T21:01:01.498Z,12.39
2019-05-22T21:03:31.618Z,12.28
2019-05-22T21:06:02.288Z,12.11
2019-05-22T21:08:32.052Z,12.07
2019-05-22T21:11:01.457Z,12.08
2019-05-22T21:13:31.027Z,12.16
2019-05-22T21:16:01.033Z,12.15
2019-05-22T21:18:42.029Z,12.16
2019-05-22T21:21:11.955Z,12.20
2019-05-22T21:23:41.467Z,12.08
2019-05-22T21:26:10.803Z,12.03
2019-05-22T21:28:40.933Z,11.98
2019-05-22T21:31:10.226Z,11.95
2019-05-22T21:33:39.837Z,11.94
2019-05-22T21:36:10.665Z,11.87
2019-05-22T21:38:40.295Z,11.93
2019-05-22T21:41:10.094Z,11.88
2019-05-22T21:43:39.260Z,11.87
2019-05-22T21:46:08.576Z,11.81
2019-05-22T21:48:38.114Z,11.80
2019-05-22T21:51:08.811Z,11.74
2019-05-22T21:53:38.367Z,11.73
2019-05-22T21:56:08.034Z,11.68
2019-05-22T21:58:38.475Z,11.71
2019-05-22T22:01:27.150Z,11.76
2019-05-22T22:04:01.368Z,11.78
2019-05-22T22:06:33.205Z,11.90
2019-05-22T22:09:01.973Z,11.83
2019-05-22T22:11:31.631Z,11.80
2019-05-22T22:14:01.350Z,11.81
2019-05-22T22:16:30.916Z,11.74
2019-05-22T22:19:01.373Z,11.64
2019-05-22T22:21:30.670Z,11.70
2019-05-22T22:24:00.058Z,11.67
2019-05-22T22:26:30.500Z,11.63
2019-05-22T22:28:59.868Z,11.44
2019-05-22T22:31:31.089Z,11.40
2019-05-22T22:34:06.989Z,11.42
2019-05-22T22:36:36.128Z,11.51
2019-05-22T22:39:07.912Z,11.58
2019-05-22T22:41:37.428Z,11.41
2019-05-22T22:44:07.977Z,11.39
2019-05-22T22:46:43.276Z,11.40
2019-05-22T22:49:15.186Z,11.42
2019-05-22T22:51:44.270Z,11.37
2019-05-22T22:54:14.331Z,11.41
2019-05-22T22:56:43.606Z,11.29
2019-05-22T22:59:14.033Z,11.27
2019-05-22T23:01:45.486Z,11.19
2019-05-22T23:04:14.795Z,11.12
2019-05-22T23:06:45.148Z,11.01
2019-05-22T23:09:15.246Z,10.96
2019-05-22T23:11:45.626Z,10.92
2019-05-22T23:14:15.800Z,10.88
2019-05-22T23:16:44.827Z,10.75
2019-05-22T23:19:35.759Z,10.80
2019-05-22T23:22:05.501Z,10.75
2019-05-22T23:24:37.594Z,10.81
2019-05-22T23:27:08.330Z,10.75
2019-05-22T23:29:38.598Z,10.78
2019-05-22T23:32:09.346Z,10.85
2019-05-22T23:34:38.819Z,10.69
2019-05-22T23:37:10.333Z,10.68
2019-05-22T23:39:39.607Z,10.66
2019-05-22T23:42:12.649Z,10.56
2019-05-22T23:44:41.930Z,10.65
2019-05-22T23:47:11.240Z,10.59
2019-05-22T23:49:41.339Z,10.56
2019-05-22T23:52:12.551Z,10.73
2019-05-22T23:54:43.842Z,10.71
2019-05-22T23:57:17.873Z,10.62
2019-05-22T23:59:53.274Z,10.53
